CW8919 Weather Reports


time (UTC)temp
C
wind
direction
speed
KPH
gust
KPH
rain 1hr
cm
rain 24hr
cm
rain mn
cm
humidity
%
barometer
mb
20180818024429 18 360 0.0 0.0 0.00 0.00 0.00 80 1015.1
20180818022935 18 360 1.6 4.8 0.00 0.00 0.00 80 1015.1
20180818021432 18 360 0.0 4.8 0.00 0.00 0.00 80 1015.1
20180818015938 18 360 0.0 0.0 0.00 0.00 0.00 80 1015.2
20180818014441 18 360 1.6 6.4 0.00 0.00 0.00 80 1015.2
20180818012923 18 358 0.0 9.7 0.00 0.00 0.00 81 1015.3
20180818011441 18 360 1.6 12.9 0.00 0.00 0.00 81 1015.4
20180818005937 18 360 3.2 12.9 0.00 0.00 0.00 80 1015.6
20180818004439 18 359 1.6 19.3 0.00 0.00 0.00 80 1015.6
20180818002941 18 357 9.7 22.5 0.00 0.00 0.00 80 1015.8
20180818001424 18 2 6.4 17.7 0.00 0.00 0.00 80 1015.9
20180817235928 18 4 11.3 19.3 0.00 0.00 0.00 80 1015.9
20180817234425 19 15 3.2 19.3 0.00 0.00 0.00 79 1016.0
20180817232931 19 20 3.2 14.5 0.00 0.00 0.00 79 1016.0
20180817231428 19 20 3.2 14.5 0.00 0.00 0.00 78 1016.0
20180817225936 19 15 8.0 17.7 0.00 0.00 0.00 78 1016.0
20180817224432 19 9 1.6 17.7 0.00 0.00 0.00 77 1016.1
20180817222938 20 6 11.3 19.3 0.00 0.00 0.00 77 1016.1
20180817221435 20 15 9.7 25.7 0.00 0.00 0.00 75 1016.2
20180817215940 20 356 6.4 27.4 0.00 0.00 0.00 75 1016.1
20180817214440 20 15 3.2 16.1 0.00 0.00 0.00 74 1016.2
20180817212941 20 4 3.2 16.1 0.00 0.00 0.00 74 1016.3
20180817211436 20 4 8.0 20.9 0.00 0.00 0.00 74 1016.1
20180817205933 20 15 6.4 17.7 0.00 0.00 0.00 74 1016.0
20180817204429 21 10 6.4 24.1 0.00 0.00 0.00 73 1016.0
20180817202932 21 3 6.4 24.1 0.00 0.00 0.00 72 1015.8
20180817201433 21 15 8.0 20.9 0.00 0.00 0.00 71 1015.7
20180817195940 21 9 4.8 20.9 0.00 0.00 0.00 69 1015.5
20180817194437 22 5 3.2 24.1 0.00 0.00 0.00 67 1015.5
20180817192942 22 339 9.7 32.2 0.00 0.00 0.00 66 1015.4
20180817191440 22 25 11.3 25.7 0.00 0.00 0.00 65 1015.2
20180817185936 22 352 12.9 32.2 0.00 0.00 0.00 64 1015.1
20180817184438 22 8 8.0 27.4 0.00 0.00 0.00 64 1015.2
20180817182941 23 351 16.1 35.4 0.00 0.00 0.00 64 1015.1
20180817181437 23 335 17.7 33.8 0.00 0.00 0.00 63 1015.1
20180817175927 23 345 17.7 35.4 0.00 0.00 0.00 62 1015.2
20180817174425 23 360 11.3 29.0 0.00 0.00 0.00 62 1015.2
20180817172927 24 326 12.9 32.2 0.00 0.00 0.00 61 1015.3
20180817171429 25 330 12.9 30.6 0.00 0.00 0.00 59 1015.4
20180817165929 25 346 11.3 33.8 0.00 0.00 0.00 59 1015.5
20180817164423 25 357 12.9 29.0 0.00 0.00 0.00 59 1015.4
20180817162925 25 353 19.3 33.8 0.00 0.00 0.00 58 1015.5
20180817161424 25 4 16.1 37.0 0.00 0.00 0.00 59 1015.4
20180817155932 25 7 6.4 35.4 0.00 0.00 0.00 60 1015.5
20180817154429 25 329 19.3 35.4 0.00 0.00 0.00 59 1015.8
20180817152935 26 360 3.2 24.1 0.00 0.00 0.00 59 1015.8
20180817151433 26 2 19.3 33.8 0.00 0.00 0.00 59 1015.9
20180817145929 26 345 12.9 29.0 0.00 0.00 0.00 56 1016.0
20180817144429 26 341 8.0 25.7 0.00 0.00 0.00 59 1016.2
20180817142931 26 341 14.5 33.8 0.00 0.00 0.00 57 1016.5
20180817141427 26 341 19.3 30.6 0.00 0.00 0.00 57 1016.6
20180817135937 26 347 14.5 35.4 0.00 0.00 0.00 56 1016.6
20180817134434 26 356 11.3 25.7 0.00 0.00 0.00 58 1016.7
20180817132934 26 322 9.7 22.5 0.00 0.00 0.00 58 1016.7
20180817131436 26 357 11.3 24.1 0.00 0.00 0.00 58 1016.7
20180817125930 26 343 4.8 24.1 0.00 0.00 0.00 59 1016.9
20180817124430 25 359 3.2 17.7 0.00 0.00 0.00 62 1017.1
20180817122934 25 339 14.5 22.5 0.00 0.00 0.00 63 1017.2
20180817121430 25 333 8.0 22.5 0.00 0.00 0.00 64 1017.4
20180817115936 24 324 6.4 25.7 0.00 0.00 0.00 65 1017.5
20180817114439 24 356 6.4 22.5 0.00 0.00 0.00 66 1017.5
20180817112939 23 306 8.0 20.9 0.00 0.00 0.00 66 1017.8
20180817111436 23 327 8.0 22.5 0.00 0.00 0.00 68 1018.0
20180817105924 23 335 8.0 19.3 0.00 0.00 0.00 69 1018.0
20180817104442 22 321 14.5 27.4 0.00 0.00 0.00 69 1018.1
20180817102923 22 311 9.7 24.1 0.00 0.00 0.00 70 1018.0
20180817101423 21 344 9.7 29.0 0.00 0.00 0.00 73 1018.2
20180817095929 21 315 9.7 20.9 0.00 0.00 0.00 73 1018.1
20180817094425 21 353 6.4 24.1 0.00 0.00 0.00 74 1017.9
20180817092928 21 354 6.4 19.3 0.00 0.00 0.00 75 1017.6
20180817091430 20 331 11.3 32.2 0.00 0.00 0.00 76 1017.5
20180817085929 20 358 4.8 22.5 0.00 0.00 0.00 77 1017.6
20180817084425 20 337 9.7 25.7 0.00 0.00 0.00 79 1017.5
20180817082933 19 318 3.2 24.1 0.00 0.00 0.00 81 1017.8
20180817081428 18 349 6.4 27.4 0.00 0.00 0.00 83 1017.7
20180817075934 18 360 9.7 27.4 0.00 0.00 0.00 84 1017.6
20180817074435 18 345 9.7 29.0 0.00 0.00 0.00 84 1017.7
20180817072937 18 317 12.9 30.6 0.00 0.00 0.00 85 1017.6
20180817071435 18 326 3.2 29.0 0.00 0.00 0.00 85 1017.2
20180817065932 18 7 19.3 37.0 0.00 0.00 0.00 85 1017.2
20180817064429 18 329 6.4 29.0 0.00 0.00 0.00 85 1017.0
20180817062931 18 345 6.4 19.3 0.00 0.00 0.00 85 1017.3
20180817061431 18 15 8.0 27.4 0.00 0.00 0.00 85 1017.0
20180817055933 18 350 3.2 19.3 0.00 0.00 0.00 85 1017.1
20180817054431 18 352 12.9 30.6 0.00 0.00 0.00 85 1017.0
20180817052934 18 346 12.9 22.5 0.00 0.00 0.00 84 1016.9
20180817051432 18 358 9.7 19.3 0.00 0.00 0.00 85 1016.9
20180817045928 18 340 6.4 20.9 0.00 0.00 0.00 85 1017.0
20180817044430 18 358 8.0 22.5 0.00 0.00 0.00 84 1016.7
20180817042930 18 333 6.4 19.3 0.00 0.00 0.00 84 1016.9
20180817041425 18 349 3.2 14.5 0.00 0.00 0.00 84 1016.8
20180817035937 18 356 4.8 16.1 0.00 0.00 0.00 84 1016.6
20180817034436 18 4 3.2 14.5 0.00 0.00 0.00 84 1016.7
20180817032935 18 10 0.0 6.4 0.00 0.00 0.00 84 1016.8
20180817031435 18 358 4.8 16.1 0.00 0.00 0.00 85 1016.8
20180817025929 18 346 11.3 25.7 0.00 0.00 0.00 84 1017.0